Wheeler Sack Army Air Field Fort Drum US
ICAO: KGTB
IATA: GTB
Category: Medium
Scheduled Services: No

Elevation: 688 ft
TransAlt. 18000 ft.

Airport Communications:
APP/DEP:128.25
ATIS:126.55
GND:121.9
FORT DRUM FLT FLW:141.025
BASE OPS:120.8
PMSV SACK METRO:63.3
TWR:118.75

KGTB Zoom In..

Runways:

(A) RW 03 length 10000 ft width 150 ft
ILS 108.50 / hdg 29

(B) RW 08 length 4501 ft width 150 ft
---- / hdg 84

(C) RW 15 length 4998 ft width 150 ft
---- / hdg 147

(D) RW 21 length 10000 ft width 150 ft
ILS 108.50 / hdg 209

(E) RW 26 length 4501 ft width 150 ft
---- / hdg 264

(F) RW 33 length 4998 ft width 150 ft
---- / hdg 327

Location; KGTB
Day. 19 / Time. 20.56 Zulu
* Altimeter: 29.87
* Temperature: 01° c. 33.8°f.
* Wind from: 330° Speed 11 kn with Gusts up to 16 kn.
Dewpoint: -04° c.
Visibility: 10 Statute Miles.
Clouds: Broken 2400 ft.
Clouds: Overcast 3800 ft.

KGTB 192056Z 33011G16KT 10SM BKN024 OVC038 01/M04 A2987 RMK AO2A TWR VIS 2 1/2 RAE05SNB05E25 SLP123 P0000 60001 T00141037 52017


Wind From 330°
Speed 11 kn.

  YouTube Music Video
 
jpsmedia.com for Web Design  worldairports.se 2018   terms of use